You are listening to:
LKPR Approach - Prague, Czech Republic

LKPR 031500Z 35010KT 9999 FEW014 SCT040 18/15 Q1010 NOSIG

If stream doesn't start automatically press the play button
If stream stops then reload player then press play